createdAt,value
2018-10-07T00:02:27.976Z,36.67
2018-10-07T00:05:00.578Z,39.67
2018-10-07T00:07:33.081Z,39.47
2018-10-07T00:10:07.344Z,39.23
2018-10-07T00:12:39.876Z,39.83
2018-10-07T00:15:13.910Z,40.23
2018-10-07T00:17:46.924Z,40.90
2018-10-07T00:20:19.439Z,40.53
2018-10-07T00:22:52.022Z,41.70
2018-10-07T00:25:25.064Z,40.20
2018-10-07T00:27:57.623Z,41.83
2018-10-07T00:30:30.399Z,41.03
2018-10-07T00:33:03.385Z,38.20
2018-10-07T00:35:36.944Z,40.50
2018-10-07T00:38:10.223Z,41.93
2018-10-07T00:40:43.177Z,42.40
2018-10-07T00:43:15.773Z,42.07
2018-10-07T00:45:48.986Z,41.83
2018-10-07T00:48:21.575Z,43.13
2018-10-07T00:50:54.487Z,41.03
2018-10-07T00:53:27.028Z,43.13
2018-10-07T00:56:00.808Z,45.77
2018-10-07T00:58:34.300Z,44.90
2018-10-07T01:01:07.456Z,48.37
2018-10-07T01:03:40.283Z,47.40
2018-10-07T01:06:13.552Z,47.90
2018-10-07T01:08:46.069Z,46.93
2018-10-07T01:11:20.856Z,49.63
2018-10-07T01:13:56.840Z,51.57
2018-10-07T01:16:29.967Z,48.10
2018-10-07T01:19:02.492Z,46.57
2018-10-07T01:21:36.030Z,45.73
2018-10-07T01:24:08.729Z,46.30
2018-10-07T01:26:41.415Z,45.90
2018-10-07T01:29:15.131Z,47.27
2018-10-07T01:31:47.805Z,47.43
2018-10-07T01:34:20.830Z,51.50
2018-10-07T01:36:54.812Z,50.57
2018-10-07T01:39:27.642Z,51.70
2018-10-07T01:42:01.092Z,51.57
2018-10-07T01:44:33.989Z,48.13
2018-10-07T01:47:06.597Z,48.30
2018-10-07T01:49:39.212Z,49.73
2018-10-07T01:52:12.758Z,49.83
2018-10-07T01:54:45.394Z,57.45
2018-10-07T01:57:18.822Z,49.97
2018-10-07T01:59:51.747Z,54.63
2018-10-07T02:02:24.495Z,63.28
2018-10-07T02:04:57.126Z,56.30
2018-10-07T02:07:33.508Z,56.73
2018-10-07T02:10:06.343Z,55.63
2018-10-07T02:12:39.080Z,57.17
2018-10-07T02:15:14.549Z,60.73
2018-10-07T02:17:47.304Z,59.37
2018-10-07T02:20:19.948Z,58.83
2018-10-07T02:22:54.136Z,69.77
2018-10-07T02:25:27.548Z,63.03
2018-10-07T02:28:00.363Z,62.47
2018-10-07T02:30:33.331Z,71.23
2018-10-07T02:33:06.769Z,64.07
2018-10-07T02:35:40.917Z,62.73
2018-10-07T02:38:13.841Z,63.83
2018-10-07T02:40:46.469Z,64.87
2018-10-07T02:43:18.997Z,65.80
2018-10-07T02:45:52.905Z,67.63
2018-10-07T02:48:25.388Z,63.33
2018-10-07T02:50:58.093Z,63.67
2018-10-07T02:53:32.362Z,62.73
2018-10-07T02:56:06.465Z,61.17
2018-10-07T02:58:38.957Z,62.03
2018-10-07T03:01:11.797Z,60.63
2018-10-07T03:03:44.561Z,61.83
2018-10-07T03:06:17.440Z,61.27
2018-10-07T03:08:50.293Z,71.70
2018-10-07T03:11:23.347Z,63.20
2018-10-07T03:13:56.486Z,58.70
2018-10-07T03:16:29.432Z,59.77
2018-10-07T03:19:02.050Z,60.63
2018-10-07T03:21:34.504Z,59.23
2018-10-07T03:24:07.483Z,59.80
2018-10-07T03:26:41.100Z,57.63
2018-10-07T03:29:13.696Z,57.37
2018-10-07T03:31:46.705Z,56.83
2018-10-07T03:34:19.485Z,55.17
2018-10-07T03:36:52.032Z,61.15
2018-10-07T03:39:25.985Z,54.57
2018-10-07T03:41:58.457Z,52.87
2018-10-07T03:44:31.095Z,58.92
2018-10-07T03:47:09.232Z,52.70
2018-10-07T03:49:41.828Z,58.78
2018-10-07T03:52:14.171Z,48.73
2018-10-07T03:54:46.952Z,50.55
2018-10-07T03:57:19.745Z,45.10
2018-10-07T03:59:53.108Z,40.20
2018-10-07T04:02:27.183Z,39.97
2018-10-07T04:04:59.671Z,37.40
2018-10-07T04:07:32.383Z,34.27
2018-10-07T04:10:07.332Z,31.40
2018-10-07T04:12:40.167Z,28.47
2018-10-07T04:15:14.857Z,25.17
2018-10-07T04:17:48.828Z,22.57
2018-10-07T04:20:21.415Z,23.27
2018-10-07T04:22:53.937Z,23.20
2018-10-07T04:25:26.814Z,19.60
2018-10-07T04:27:59.349Z,21.20
2018-10-07T04:30:32.883Z,20.23
2018-10-07T04:33:07.588Z,19.23
2018-10-07T04:35:40.420Z,19.77
2018-10-07T04:38:13.385Z,16.47
2018-10-07T04:40:46.396Z,16.27
2018-10-07T04:43:18.873Z,13.33
2018-10-07T04:45:51.538Z,13.67
2018-10-07T04:48:24.493Z,13.00
2018-10-07T04:50:58.336Z,12.40
2018-10-07T04:53:31.329Z,12.73
2018-10-07T04:56:05.109Z,13.13
2018-10-07T04:58:37.771Z,13.57
2018-10-07T05:01:10.483Z,15.93
2018-10-07T05:03:43.313Z,14.07
2018-10-07T05:06:19.025Z,11.63
2018-10-07T05:08:56.122Z,13.63
2018-10-07T05:11:32.269Z,14.20
2018-10-07T05:14:11.380Z,12.30
2018-10-07T05:16:53.571Z,11.43
2018-10-07T05:19:26.221Z,10.50
2018-10-07T05:22:00.225Z,10.43
2018-10-07T05:24:32.700Z,9.63
2018-10-07T05:27:05.377Z,9.60
2018-10-07T05:29:38.288Z,9.60
2018-10-07T05:32:10.878Z,10.43
2018-10-07T05:34:43.432Z,11.37
2018-10-07T05:37:17.261Z,11.83
2018-10-07T05:39:50.061Z,16.90
2018-10-07T05:42:22.823Z,14.03
2018-10-07T05:44:55.551Z,15.75
2018-10-07T05:47:28.256Z,13.57
2018-10-07T05:50:00.712Z,13.23
2018-10-07T05:52:33.952Z,13.73
2018-10-07T05:55:06.941Z,13.00
2018-10-07T05:57:42.324Z,13.63
2018-10-07T06:00:20.313Z,13.20
2018-10-07T06:03:05.307Z,12.90
2018-10-07T06:05:39.748Z,12.37
2018-10-07T06:08:18.756Z,12.17
2018-10-07T06:10:51.561Z,11.47
2018-10-07T06:13:25.745Z,13.43
2018-10-07T06:15:58.336Z,12.83
2018-10-07T06:18:33.489Z,12.40
2018-10-07T06:21:06.731Z,12.93
2018-10-07T06:23:40.253Z,12.57
2018-10-07T06:26:16.884Z,11.53
2018-10-07T06:28:50.201Z,11.37
2018-10-07T06:31:22.817Z,13.55
2018-10-07T06:33:57.756Z,10.87
2018-10-07T06:36:30.435Z,11.80
2018-10-07T06:39:04.156Z,9.20
2018-10-07T06:41:37.276Z,8.03
2018-10-07T06:44:10.134Z,6.60
2018-10-07T06:46:46.929Z,6.87
2018-10-07T06:49:20.469Z,6.87
2018-10-07T06:51:53.254Z,5.97
2018-10-07T06:54:25.930Z,5.73
2018-10-07T06:56:58.820Z,4.97
2018-10-07T06:59:31.910Z,5.33
2018-10-07T07:02:05.117Z,5.40
2018-10-07T07:04:38.185Z,5.90
2018-10-07T07:07:10.725Z,6.67
2018-10-07T07:09:44.993Z,7.73
2018-10-07T07:12:20.181Z,7.53
2018-10-07T07:14:52.823Z,6.37
2018-10-07T07:17:25.333Z,7.00
2018-10-07T07:19:58.501Z,7.53
2018-10-07T07:22:30.923Z,7.27
2018-10-07T07:25:04.728Z,7.53
2018-10-07T07:27:37.916Z,8.37
2018-10-07T07:30:13.656Z,8.17
2018-10-07T07:32:48.572Z,7.40
2018-10-07T07:35:25.026Z,7.47
2018-10-07T07:37:58.836Z,7.97
2018-10-07T07:40:37.084Z,6.63
2018-10-07T07:43:09.960Z,7.07
2018-10-07T07:45:43.741Z,6.93
2018-10-07T07:48:16.375Z,5.03
2018-10-07T07:50:48.940Z,5.33
2018-10-07T07:53:24.030Z,5.70
2018-10-07T07:55:56.561Z,5.97
2018-10-07T07:58:32.580Z,6.90
2018-10-07T08:01:07.165Z,6.30
2018-10-07T08:03:39.855Z,6.30
2018-10-07T08:06:12.454Z,7.13
2018-10-07T08:08:45.097Z,6.70
2018-10-07T08:11:18.368Z,6.63
2018-10-07T08:13:51.357Z,5.85
2018-10-07T08:16:24.908Z,5.03
2018-10-07T08:18:57.611Z,4.27
2018-10-07T08:21:34.515Z,3.60
2018-10-07T08:24:06.968Z,3.30
2018-10-07T08:26:41.788Z,3.20
2018-10-07T08:29:15.861Z,3.55
2018-10-07T08:31:49.558Z,2.80
2018-10-07T08:34:21.984Z,2.10
2018-10-07T08:36:56.452Z,2.17
2018-10-07T08:39:29.249Z,2.33
2018-10-07T08:42:02.394Z,2.10
2018-10-07T08:44:36.844Z,2.57
2018-10-07T08:47:09.333Z,2.33
2018-10-07T08:49:43.007Z,2.60
2018-10-07T08:52:17.636Z,2.70
2018-10-07T08:54:50.941Z,2.70
2018-10-07T08:57:23.605Z,2.50
2018-10-07T08:59:56.612Z,2.93
2018-10-07T09:02:29.302Z,2.73
2018-10-07T09:05:04.269Z,2.60
2018-10-07T09:07:38.929Z,2.37
2018-10-07T09:10:11.326Z,2.90
2018-10-07T09:12:44.427Z,2.50
2018-10-07T09:15:17.992Z,2.23
2018-10-07T09:17:51.752Z,2.30
2018-10-07T09:20:40.803Z,2.50
2018-10-07T09:23:18.212Z,2.60
2018-10-07T09:25:51.376Z,2.43
2018-10-07T09:28:25.065Z,2.10
2018-10-07T09:30:57.962Z,2.60
2018-10-07T09:33:31.448Z,2.30
2018-10-07T09:36:05.417Z,2.23
2018-10-07T09:38:39.425Z,2.23
2018-10-07T09:41:12.233Z,2.00
2018-10-07T09:43:44.972Z,1.77
2018-10-07T09:46:20.816Z,1.80
2018-10-07T09:48:54.834Z,1.60
2018-10-07T09:51:28.610Z,1.23
2018-10-07T09:54:01.346Z,1.40
2018-10-07T09:56:35.197Z,1.27
2018-10-07T09:59:10.914Z,1.30
2018-10-07T10:01:44.628Z,1.50
2018-10-07T10:04:26.293Z,1.30
2018-10-07T10:07:00.219Z,1.40
2018-10-07T10:09:35.800Z,1.17
2018-10-07T10:12:11.443Z,1.40
2018-10-07T10:14:45.144Z,1.20
2018-10-07T10:17:22.668Z,1.20
2018-10-07T10:20:08.979Z,1.57
2018-10-07T10:23:08.555Z,1.23
2018-10-07T10:26:11.681Z,1.40
2018-10-07T10:29:36.780Z,1.20
2018-10-07T10:32:27.908Z,1.80
2018-10-07T10:35:39.722Z,0.90
2018-10-07T10:38:46.978Z,1.27
2018-10-07T10:42:45.325Z,1.10
2018-10-07T10:45:52.552Z,1.05
2018-10-07T10:48:45.217Z,0.80
2018-10-07T10:52:06.873Z,2.67
2018-10-07T10:55:28.808Z,1.23
2018-10-07T10:58:20.772Z,0.93
2018-10-07T11:01:18.310Z,1.10
2018-10-07T11:04:29.322Z,0.80
2018-10-07T11:07:44.731Z,0.97
2018-10-07T11:10:44.585Z,1.00
2018-10-07T11:13:44.084Z,0.90
2018-10-07T11:16:52.949Z,0.60
2018-10-07T11:19:52.055Z,0.70
2018-10-07T11:23:14.082Z,1.05
2018-10-07T11:26:31.553Z,0.93
2018-10-07T11:30:01.129Z,0.80
2018-10-07T11:33:40.665Z,0.97
2018-10-07T11:37:30.810Z,0.90
2018-10-07T11:41:00.136Z,0.80
2018-10-07T11:44:37.005Z,1.30
2018-10-07T11:48:01.841Z,0.70
2018-10-07T11:51:08.757Z,0.90
2018-10-07T11:53:53.844Z,0.87
2018-10-07T11:56:29.277Z,0.90
2018-10-07T11:59:06.504Z,0.90
2018-10-07T12:01:49.964Z,1.12
2018-10-07T12:04:25.924Z,1.00
2018-10-07T12:06:58.886Z,0.97
2018-10-07T12:09:31.537Z,0.97
2018-10-07T12:12:04.818Z,1.20
2018-10-07T12:14:41.310Z,1.10
2018-10-07T12:17:15.969Z,0.83
2018-10-07T12:19:50.417Z,1.07
2018-10-07T12:22:24.811Z,1.00
2018-10-07T12:24:57.738Z,1.10
2018-10-07T12:27:33.086Z,0.90
2018-10-07T12:30:07.222Z,1.20
2018-10-07T12:32:44.590Z,0.90
2018-10-07T12:35:18.457Z,0.70
2018-10-07T12:37:54.033Z,0.80
2018-10-07T12:40:29.361Z,0.63
2018-10-07T12:43:02.725Z,0.70
2018-10-07T12:45:44.043Z,0.53
2018-10-07T12:48:16.892Z,0.80
2018-10-07T12:50:50.984Z,0.80
2018-10-07T12:53:27.169Z,0.60
2018-10-07T12:56:02.332Z,0.60
2018-10-07T12:58:35.304Z,0.70
2018-10-07T13:01:10.242Z,0.70
2018-10-07T13:03:43.728Z,0.60
2018-10-07T13:06:20.157Z,0.70
2018-10-07T13:08:55.460Z,0.73
2018-10-07T13:11:30.493Z,0.70
2018-10-07T13:14:05.635Z,0.80
2018-10-07T13:16:39.282Z,0.90
2018-10-07T13:19:14.024Z,0.60
2018-10-07T13:21:49.341Z,0.70
2018-10-07T13:24:23.253Z,0.73
2018-10-07T13:26:56.772Z,0.70
2018-10-07T13:29:33.912Z,0.47
2018-10-07T13:32:07.546Z,0.60
2018-10-07T13:34:42.441Z,0.63
2018-10-07T13:37:16.418Z,0.80
2018-10-07T13:39:56.995Z,0.87
2018-10-07T13:42:30.634Z,0.82
2018-10-07T13:45:06.261Z,0.60
2018-10-07T13:47:45.817Z,0.73
2018-10-07T13:50:24.597Z,0.77
2018-10-07T13:53:03.380Z,0.70
2018-10-07T13:55:45.261Z,0.80
2018-10-07T13:58:23.301Z,0.83
2018-10-07T14:01:02.497Z,0.70
2018-10-07T14:03:41.817Z,0.73
2018-10-07T14:06:20.372Z,0.70
2018-10-07T14:08:58.556Z,0.70
2018-10-07T14:11:36.207Z,0.67
2018-10-07T14:14:14.467Z,0.70
2018-10-07T14:16:52.784Z,0.60
2018-10-07T14:19:39.870Z,0.60
2018-10-07T14:22:18.504Z,0.57
2018-10-07T14:24:57.414Z,0.70
2018-10-07T14:27:38.732Z,0.90
2018-10-07T14:30:17.975Z,0.67
2018-10-07T14:32:56.460Z,0.70
2018-10-07T14:35:36.098Z,0.50
2018-10-07T14:38:13.633Z,0.60
2018-10-07T14:40:51.502Z,0.80
2018-10-07T14:43:28.985Z,0.70
2018-10-07T14:46:07.278Z,0.70
2018-10-07T14:48:44.781Z,0.85
2018-10-07T14:51:23.945Z,0.80
2018-10-07T14:54:02.254Z,0.60
2018-10-07T14:56:39.926Z,0.70
2018-10-07T14:59:20.049Z,0.80
2018-10-07T15:01:58.324Z,0.60
2018-10-07T15:04:36.037Z,0.60
2018-10-07T15:07:14.235Z,0.80
2018-10-07T15:09:51.823Z,0.60
2018-10-07T15:12:29.503Z,0.63
2018-10-07T15:15:13.547Z,0.50
2018-10-07T15:17:52.342Z,0.90
2018-10-07T15:20:30.112Z,0.90
2018-10-07T15:23:08.987Z,0.70
2018-10-07T15:25:49.161Z,0.50
2018-10-07T15:28:32.219Z,0.70
2018-10-07T15:31:12.236Z,0.60
2018-10-07T15:33:50.755Z,0.63
2018-10-07T15:36:28.177Z,0.60
2018-10-07T15:39:08.531Z,0.60
2018-10-07T15:41:46.563Z,0.73
2018-10-07T15:44:24.752Z,0.70
2018-10-07T15:47:06.325Z,0.70
2018-10-07T15:49:44.466Z,0.73
2018-10-07T15:52:22.253Z,0.73
2018-10-07T15:54:59.847Z,0.60
2018-10-07T15:57:39.725Z,0.80
2018-10-07T16:00:18.348Z,0.60
2018-10-07T16:02:56.752Z,0.67
2018-10-07T16:05:34.779Z,0.90
2018-10-07T16:08:18.495Z,0.70
2018-10-07T16:10:57.510Z,0.60
2018-10-07T16:13:35.413Z,0.80
2018-10-07T16:16:13.011Z,0.57
2018-10-07T16:18:51.831Z,0.50
2018-10-07T16:21:31.441Z,0.80
2018-10-07T16:24:10.991Z,0.67
2018-10-07T16:26:49.418Z,0.70
2018-10-07T16:29:26.949Z,0.73
2018-10-07T16:32:08.608Z,0.77
2018-10-07T16:34:48.097Z,0.70
2018-10-07T16:37:27.837Z,0.70
2018-10-07T16:40:06.097Z,0.60
2018-10-07T16:42:47.472Z,0.70
2018-10-07T16:45:26.969Z,0.60
2018-10-07T16:48:04.748Z,0.43
2018-10-07T16:50:45.689Z,0.67
2018-10-07T16:53:27.905Z,0.53
2018-10-07T16:56:11.955Z,1.00
2018-10-07T16:58:49.721Z,0.77
2018-10-07T17:01:30.617Z,0.80
2018-10-07T17:04:09.305Z,1.10
2018-10-07T17:06:48.362Z,1.00
2018-10-07T17:09:26.990Z,0.80
2018-10-07T17:12:05.536Z,1.10
2018-10-07T17:14:42.955Z,0.80
2018-10-07T17:17:23.715Z,0.80
2018-10-07T17:20:02.192Z,0.80
2018-10-07T17:22:42.489Z,0.90
2018-10-07T17:25:24.532Z,0.87
2018-10-07T17:28:05.052Z,0.87
2018-10-07T17:30:43.884Z,0.80
2018-10-07T17:33:22.377Z,1.20
2018-10-07T17:36:02.366Z,1.53
2018-10-07T17:38:42.747Z,2.20
2018-10-07T17:41:22.959Z,2.87
2018-10-07T17:44:09.734Z,2.60
2018-10-07T17:46:53.498Z,2.30
2018-10-07T17:49:35.153Z,2.40
2018-10-07T17:52:12.764Z,2.60
2018-10-07T17:55:03.796Z,1.87
2018-10-07T17:57:43.133Z,1.63
2018-10-07T18:00:23.226Z,2.13
2018-10-07T18:03:03.578Z,1.20
2018-10-07T18:05:42.297Z,1.00
2018-10-07T18:08:20.162Z,1.20
2018-10-07T18:10:59.540Z,1.40
2018-10-07T18:13:39.246Z,1.00
2018-10-07T18:16:17.432Z,1.10
2018-10-07T18:18:57.133Z,1.10
2018-10-07T18:21:34.524Z,1.10
2018-10-07T18:24:14.026Z,1.13
2018-10-07T18:26:53.761Z,0.97
2018-10-07T18:29:32.485Z,1.20
2018-10-07T18:32:12.159Z,1.40
2018-10-07T18:34:50.661Z,1.40
2018-10-07T18:37:29.104Z,1.30
2018-10-07T18:40:08.464Z,1.70
2018-10-07T18:42:49.232Z,1.20
2018-10-07T18:45:29.229Z,1.57
2018-10-07T18:48:08.622Z,1.50
2018-10-07T18:50:46.535Z,2.80
2018-10-07T18:53:25.900Z,2.00
2018-10-07T18:56:06.342Z,1.70
2018-10-07T18:58:44.164Z,2.07
2018-10-07T19:01:25.160Z,2.00
2018-10-07T19:04:04.693Z,1.47
2018-10-07T19:06:43.999Z,1.27
2018-10-07T19:09:24.853Z,1.27
2018-10-07T19:12:08.579Z,1.30
2018-10-07T19:14:49.426Z,1.40
2018-10-07T19:17:27.645Z,1.73
2018-10-07T19:20:06.340Z,1.90
2018-10-07T19:22:47.745Z,1.47
2018-10-07T19:25:30.778Z,1.63
2018-10-07T19:28:09.419Z,1.30
2018-10-07T19:30:50.335Z,1.33
2018-10-07T19:33:32.353Z,1.27
2018-10-07T19:36:09.931Z,1.43
2018-10-07T19:38:49.495Z,1.60
2018-10-07T19:41:30.263Z,1.70
2018-10-07T19:44:13.252Z,1.40
2018-10-07T19:46:52.821Z,1.85
2018-10-07T19:49:33.297Z,1.40
2018-10-07T19:52:08.922Z,1.27
2018-10-07T19:54:43.613Z,1.30
2018-10-07T19:57:22.134Z,1.87
2018-10-07T20:00:01.112Z,1.60
2018-10-07T20:02:39.829Z,1.50
2018-10-07T20:05:19.017Z,1.63
2018-10-07T20:07:58.461Z,1.60
2018-10-07T20:10:38.593Z,1.50
2018-10-07T20:13:18.146Z,1.87
2018-10-07T20:15:58.637Z,1.50
2018-10-07T20:18:34.905Z,1.70
2018-10-07T20:21:13.228Z,1.53
2018-10-07T20:23:49.894Z,1.80
2018-10-07T20:26:27.443Z,1.43
2018-10-07T20:29:01.945Z,1.60
2018-10-07T20:31:36.374Z,1.60
2018-10-07T20:34:11.224Z,1.60
2018-10-07T20:36:47.138Z,2.03
2018-10-07T20:39:20.669Z,2.20
2018-10-07T20:41:54.083Z,1.27
2018-10-07T20:44:37.088Z,1.90
2018-10-07T20:47:12.616Z,2.30
2018-10-07T20:49:46.704Z,2.13
2018-10-07T20:52:25.210Z,1.97
2018-10-07T20:55:01.408Z,2.30
2018-10-07T20:57:35.663Z,2.37
2018-10-07T21:00:27.021Z,2.00
2018-10-07T21:03:03.961Z,2.50
2018-10-07T21:05:39.536Z,2.27
2018-10-07T21:08:14.989Z,2.03
2018-10-07T21:10:47.644Z,2.35
2018-10-07T21:13:22.467Z,2.70
2018-10-07T21:15:58.285Z,2.33
2018-10-07T21:18:32.950Z,2.20
2018-10-07T21:21:07.099Z,3.13
2018-10-07T21:23:40.121Z,2.13
2018-10-07T21:26:13.754Z,2.73
2018-10-07T21:28:48.751Z,2.70
2018-10-07T21:31:21.881Z,2.70
2018-10-07T21:33:54.503Z,2.27
2018-10-07T21:36:29.614Z,2.40
2018-10-07T21:39:06.216Z,2.67
2018-10-07T21:41:39.115Z,2.43
2018-10-07T21:44:14.297Z,2.27
2018-10-07T21:46:48.629Z,2.40
2018-10-07T21:49:24.801Z,2.37
2018-10-07T21:51:58.811Z,3.03
2018-10-07T21:54:33.641Z,2.70
2018-10-07T21:57:06.848Z,1.90
2018-10-07T21:59:39.999Z,2.72
2018-10-07T22:02:13.877Z,2.50
2018-10-07T22:04:48.002Z,2.40
2018-10-07T22:07:25.353Z,2.53
2018-10-07T22:09:57.915Z,2.27
2018-10-07T22:12:33.088Z,2.80
2018-10-07T22:15:13.691Z,2.40
2018-10-07T22:17:47.252Z,2.80
2018-10-07T22:20:20.233Z,2.50
2018-10-07T22:22:54.068Z,2.27
2018-10-07T22:25:26.641Z,1.83
2018-10-07T22:27:59.676Z,1.93
2018-10-07T22:30:34.910Z,2.63
2018-10-07T22:33:07.596Z,1.97
2018-10-07T22:35:44.620Z,2.20
2018-10-07T22:38:19.769Z,2.00
2018-10-07T22:40:53.462Z,2.00
2018-10-07T22:43:26.516Z,2.70
2018-10-07T22:45:59.837Z,2.30
2018-10-07T22:48:35.952Z,2.77
2018-10-07T22:51:09.565Z,2.67
2018-10-07T22:53:42.972Z,2.40
2018-10-07T22:56:16.265Z,2.42
2018-10-07T22:58:49.886Z,2.93
2018-10-07T23:01:24.585Z,3.40
2018-10-07T23:04:00.000Z,3.20
2018-10-07T23:06:34.572Z,2.80
2018-10-07T23:09:12.451Z,2.57
2018-10-07T23:11:45.307Z,2.50
2018-10-07T23:14:20.169Z,2.63
2018-10-07T23:16:52.957Z,2.80
2018-10-07T23:19:25.660Z,2.67
2018-10-07T23:21:59.136Z,2.80
2018-10-07T23:24:31.674Z,3.40
2018-10-07T23:27:04.520Z,4.10
2018-10-07T23:29:37.464Z,4.03
2018-10-07T23:32:09.976Z,3.63
2018-10-07T23:34:44.800Z,3.00
2018-10-07T23:37:18.657Z,3.17
2018-10-07T23:39:52.373Z,2.83
2018-10-07T23:42:25.016Z,3.23
2018-10-07T23:44:57.847Z,3.60
2018-10-07T23:47:30.380Z,3.87
2018-10-07T23:50:04.397Z,3.30
2018-10-07T23:52:37.151Z,3.37
2018-10-07T23:55:10.401Z,2.77
